createdAt,value
2023-02-27T00:00:44.646Z,0.00
2023-02-27T00:01:44.644Z,0.00
2023-02-27T00:02:44.662Z,0.00
2023-02-27T00:03:44.682Z,0.00
2023-02-27T00:04:44.612Z,0.00
2023-02-27T00:05:44.596Z,0.00
2023-02-27T00:06:44.589Z,0.00
2023-02-27T00:07:44.613Z,0.00
2023-02-27T00:08:44.609Z,0.00
2023-02-27T00:09:44.561Z,0.00
2023-02-27T00:10:44.540Z,0.00
2023-02-27T00:11:44.536Z,0.00
2023-02-27T00:12:44.539Z,0.00
2023-02-27T00:13:44.535Z,0.00
2023-02-27T00:14:44.509Z,0.00
2023-02-27T00:15:44.532Z,0.00
2023-02-27T00:16:44.487Z,0.00
2023-02-27T00:17:44.480Z,0.00
2023-02-27T00:18:44.474Z,0.00
2023-02-27T00:19:44.460Z,0.00
2023-02-27T00:20:44.445Z,0.00
2023-02-27T00:21:44.442Z,0.00
2023-02-27T00:22:44.429Z,0.00
2023-02-27T00:23:44.415Z,0.00
2023-02-27T00:24:44.422Z,0.00
2023-02-27T00:25:44.412Z,0.00
2023-02-27T00:26:44.414Z,0.00
2023-02-27T00:27:44.377Z,0.00
2023-02-27T00:28:44.361Z,0.00
2023-02-27T00:29:44.354Z,0.00
2023-02-27T00:30:44.361Z,0.00
2023-02-27T00:31:44.431Z,0.00
2023-02-27T00:32:44.361Z,0.00
2023-02-27T00:33:44.308Z,0.00
2023-02-27T00:34:44.303Z,0.00
2023-02-27T00:35:44.290Z,0.00
2023-02-27T00:36:44.269Z,0.00
2023-02-27T00:37:44.272Z,0.00
2023-02-27T00:38:44.270Z,0.00
2023-02-27T00:39:44.257Z,0.00
2023-02-27T00:40:44.252Z,0.00
2023-02-27T00:41:44.239Z,0.00
2023-02-27T00:42:44.209Z,0.00
2023-02-27T00:43:44.199Z,0.00
2023-02-27T00:44:44.198Z,0.00
2023-02-27T00:45:44.185Z,0.00
2023-02-27T00:46:44.281Z,0.00
2023-02-27T00:47:44.180Z,0.00
2023-02-27T00:48:44.146Z,0.00
2023-02-27T00:49:44.140Z,0.00
2023-02-27T00:50:44.140Z,0.00
2023-02-27T00:51:44.119Z,0.00
2023-02-27T00:52:44.137Z,0.00
2023-02-27T00:53:44.119Z,0.00
2023-02-27T00:54:44.085Z,0.00
2023-02-27T00:55:44.074Z,0.00
2023-02-27T00:56:44.091Z,0.00
2023-02-27T00:57:44.123Z,0.00
2023-02-27T00:58:44.066Z,0.00
2023-02-27T00:59:44.038Z,0.00
2023-02-27T01:00:44.064Z,0.00
2023-02-27T01:01:44.023Z,0.00
2023-02-27T01:02:44.065Z,0.00
2023-02-27T01:03:44.019Z,0.00
2023-02-27T01:04:43.994Z,0.00
2023-02-27T01:05:43.997Z,0.00
2023-02-27T01:06:43.970Z,0.00
2023-02-27T01:07:43.960Z,0.00
2023-02-27T01:08:43.951Z,0.00
2023-02-27T01:09:43.953Z,0.00
2023-02-27T01:10:43.939Z,0.00
2023-02-27T01:11:43.913Z,0.00
2023-02-27T01:12:43.921Z,0.00
2023-02-27T01:13:43.893Z,0.00
2023-02-27T01:14:43.896Z,0.00
2023-02-27T01:15:43.889Z,0.00
2023-02-27T01:16:43.933Z,0.00
2023-02-27T01:17:43.861Z,0.00
2023-02-27T01:18:43.841Z,0.00
2023-02-27T01:19:43.857Z,0.00
2023-02-27T01:20:43.821Z,0.00
2023-02-27T01:21:43.829Z,0.00
2023-02-27T01:22:43.816Z,0.00
2023-02-27T01:23:43.794Z,0.00
2023-02-27T01:24:43.790Z,0.00
2023-02-27T01:25:43.786Z,0.00
2023-02-27T01:26:43.786Z,0.00
2023-02-27T01:27:43.751Z,0.00
2023-02-27T01:28:43.765Z,0.00
2023-02-27T01:29:43.731Z,0.00
2023-02-27T01:30:43.805Z,0.00
2023-02-27T01:31:43.847Z,0.00
2023-02-27T01:32:43.760Z,0.00
2023-02-27T01:33:43.695Z,0.00
2023-02-27T01:34:43.689Z,0.00
2023-02-27T01:35:43.690Z,0.00
2023-02-27T01:36:43.666Z,0.00
2023-02-27T01:37:43.652Z,0.00
2023-02-27T01:38:43.643Z,0.00
2023-02-27T01:39:43.625Z,0.00
2023-02-27T01:40:43.617Z,0.00
2023-02-27T01:41:43.622Z,0.00
2023-02-27T01:42:43.612Z,0.00
2023-02-27T01:43:43.589Z,0.00
2023-02-27T01:44:43.606Z,0.00
2023-02-27T01:45:43.661Z,0.00
2023-02-27T01:46:43.567Z,0.00
2023-02-27T01:47:43.631Z,0.00
2023-02-27T01:48:43.546Z,0.00
2023-02-27T01:49:43.521Z,0.00
2023-02-27T01:50:43.513Z,0.00
2023-02-27T01:51:43.506Z,0.00
2023-02-27T01:52:43.497Z,0.00
2023-02-27T01:53:43.508Z,0.00
2023-02-27T01:54:43.499Z,0.00
2023-02-27T01:55:43.457Z,0.00
2023-02-27T01:56:43.458Z,0.00
2023-02-27T01:57:43.454Z,0.00
2023-02-27T01:58:43.436Z,0.00
2023-02-27T01:59:43.426Z,0.00
2023-02-27T02:00:43.442Z,0.00
2023-02-27T02:01:43.404Z,0.00
2023-02-27T02:02:43.403Z,0.00
2023-02-27T02:03:43.378Z,0.00
2023-02-27T02:04:43.366Z,0.00
2023-02-27T02:05:43.377Z,0.00
2023-02-27T02:06:43.343Z,0.00
2023-02-27T02:07:43.344Z,0.00
2023-02-27T02:08:43.340Z,0.00
2023-02-27T02:09:43.336Z,0.00
2023-02-27T02:10:43.308Z,0.00
2023-02-27T02:11:43.303Z,0.00
2023-02-27T02:12:43.280Z,0.00
2023-02-27T02:13:43.271Z,0.00
2023-02-27T02:14:43.280Z,0.00
2023-02-27T02:15:43.250Z,0.00
2023-02-27T02:16:43.317Z,0.00
2023-02-27T02:17:43.244Z,0.00
2023-02-27T02:18:43.226Z,0.00
2023-02-27T02:19:43.226Z,0.00
2023-02-27T02:20:43.200Z,0.00
2023-02-27T02:21:43.197Z,0.00
2023-02-27T02:22:43.186Z,0.00
2023-02-27T02:23:43.191Z,0.00
2023-02-27T02:24:43.170Z,0.00
2023-02-27T02:25:43.156Z,0.00
2023-02-27T02:26:43.162Z,0.00
2023-02-27T02:27:43.135Z,0.00
2023-02-27T02:28:43.124Z,0.00
2023-02-27T02:29:43.123Z,0.00
2023-02-27T02:30:43.141Z,0.00
2023-02-27T02:31:43.408Z,0.00
2023-02-27T02:32:43.168Z,0.00
2023-02-27T02:33:43.065Z,0.00
2023-02-27T02:34:43.062Z,0.00
2023-02-27T02:35:43.060Z,0.00
2023-02-27T02:36:43.043Z,0.00
2023-02-27T02:37:43.051Z,0.00
2023-02-27T02:38:43.013Z,0.00
2023-02-27T02:39:43.019Z,0.00
2023-02-27T02:40:43.021Z,0.00
2023-02-27T02:41:42.988Z,0.00
2023-02-27T02:42:43.029Z,0.00
2023-02-27T02:43:43.031Z,0.00
2023-02-27T02:44:42.987Z,0.00
2023-02-27T02:45:42.955Z,0.00
2023-02-27T02:46:42.941Z,0.00
2023-02-27T02:47:42.927Z,0.00
2023-02-27T02:48:42.954Z,0.00
2023-02-27T02:49:42.906Z,0.00
2023-02-27T02:50:42.903Z,0.00
2023-02-27T02:51:42.888Z,0.00
2023-02-27T02:52:42.879Z,0.00
2023-02-27T02:53:42.895Z,0.00
2023-02-27T02:54:42.867Z,0.00
2023-02-27T02:55:42.863Z,0.00
2023-02-27T02:56:42.842Z,0.00
2023-02-27T02:57:42.824Z,0.00
2023-02-27T02:58:42.818Z,0.00
2023-02-27T02:59:42.810Z,0.00
2023-02-27T03:00:42.811Z,0.00
2023-02-27T03:01:42.821Z,0.00
2023-02-27T03:02:42.775Z,0.00
2023-02-27T03:03:42.763Z,0.00
2023-02-27T03:04:42.890Z,0.00
2023-02-27T03:05:42.753Z,0.00
2023-02-27T03:06:42.741Z,0.00
2023-02-27T03:07:42.800Z,0.00
2023-02-27T03:08:42.710Z,0.00
2023-02-27T03:09:42.717Z,0.00
2023-02-27T03:10:42.694Z,0.00
2023-02-27T03:11:42.718Z,0.00
2023-02-27T03:12:42.680Z,0.00
2023-02-27T03:13:42.664Z,0.00
2023-02-27T03:14:42.659Z,0.00
2023-02-27T03:15:42.664Z,0.00
2023-02-27T03:16:42.640Z,0.00
2023-02-27T03:17:42.633Z,0.00
2023-02-27T03:18:42.610Z,0.00
2023-02-27T03:19:42.610Z,0.00
2023-02-27T03:20:42.622Z,0.00
2023-02-27T03:21:42.584Z,0.00
2023-02-27T03:22:42.572Z,0.00
2023-02-27T03:23:42.565Z,0.00
2023-02-27T03:24:42.552Z,0.00
2023-02-27T03:25:42.537Z,0.00
2023-02-27T03:26:42.535Z,0.00
2023-02-27T03:27:42.526Z,0.00
2023-02-27T03:28:42.507Z,0.00
2023-02-27T03:29:42.497Z,0.00
2023-02-27T03:30:42.549Z,0.00
2023-02-27T03:31:42.537Z,0.00
2023-02-27T03:32:42.501Z,0.00
2023-02-27T03:33:42.449Z,0.00
2023-02-27T03:34:42.439Z,0.00
2023-02-27T03:35:42.443Z,0.00
2023-02-27T03:36:42.440Z,0.00
2023-02-27T03:37:42.413Z,0.00
2023-02-27T03:38:42.416Z,0.00
2023-02-27T03:39:42.393Z,0.00
2023-02-27T03:40:42.378Z,0.00
2023-02-27T03:41:42.394Z,0.00
2023-02-27T03:42:42.366Z,0.00
2023-02-27T03:43:42.352Z,0.00
2023-02-27T03:44:42.356Z,0.00
2023-02-27T03:45:42.340Z,0.00
2023-02-27T03:46:42.452Z,0.00
2023-02-27T03:47:42.320Z,0.00
2023-02-27T03:48:42.301Z,0.00
2023-02-27T03:49:42.299Z,0.00
2023-02-27T03:50:42.281Z,0.00
2023-02-27T03:51:42.276Z,0.00
2023-02-27T03:52:42.275Z,0.00
2023-02-27T03:53:42.263Z,0.00
2023-02-27T03:54:42.256Z,0.00
2023-02-27T03:55:42.243Z,0.00
2023-02-27T03:56:42.239Z,0.00
2023-02-27T03:57:42.209Z,0.00
2023-02-27T03:58:42.211Z,0.00
2023-02-27T03:59:42.188Z,0.00
2023-02-27T04:00:42.197Z,0.00
2023-02-27T04:01:42.182Z,0.00
2023-02-27T04:02:42.183Z,0.00
2023-02-27T04:03:42.153Z,0.00
2023-02-27T04:04:42.194Z,0.00
2023-02-27T04:05:42.126Z,0.00
2023-02-27T04:06:42.115Z,0.00
2023-02-27T04:07:42.103Z,0.00
2023-02-27T04:08:42.128Z,0.00
2023-02-27T04:09:42.094Z,0.00
2023-02-27T04:10:42.091Z,0.00
2023-02-27T04:11:42.063Z,0.00
2023-02-27T04:12:43.356Z,0.00
2023-02-27T04:13:42.053Z,0.00
2023-02-27T04:14:42.127Z,0.00
2023-02-27T04:15:42.021Z,0.00
2023-02-27T04:16:42.014Z,0.00
2023-02-27T04:17:42.009Z,0.00
2023-02-27T04:18:42.007Z,0.00
2023-02-27T04:19:41.991Z,0.00
2023-02-27T04:20:41.991Z,0.00
2023-02-27T04:21:41.977Z,0.00
2023-02-27T04:22:41.956Z,0.00
2023-02-27T04:23:41.940Z,0.00
2023-02-27T04:24:41.954Z,0.00
2023-02-27T04:25:41.932Z,0.00
2023-02-27T04:26:41.926Z,0.00
2023-02-27T04:27:41.928Z,0.00
2023-02-27T04:28:41.893Z,0.00
2023-02-27T04:29:41.896Z,0.00
2023-02-27T04:30:41.871Z,0.00
2023-02-27T04:31:41.958Z,0.00
2023-02-27T04:32:42.026Z,0.00
2023-02-27T04:33:41.846Z,0.00
2023-02-27T04:34:41.833Z,0.00
2023-02-27T04:35:41.824Z,0.00
2023-02-27T04:36:41.820Z,0.00
2023-02-27T04:37:41.811Z,0.00
2023-02-27T04:38:41.795Z,0.00
2023-02-27T04:39:41.790Z,0.00
2023-02-27T04:40:41.798Z,0.00
2023-02-27T04:41:41.784Z,0.00
2023-02-27T04:42:41.755Z,0.00
2023-02-27T04:43:41.743Z,0.00
2023-02-27T04:44:41.746Z,0.00
2023-02-27T04:45:41.767Z,0.00
2023-02-27T04:46:41.717Z,0.00
2023-02-27T04:47:41.716Z,0.00
2023-02-27T04:48:41.701Z,0.00
2023-02-27T04:49:41.696Z,0.00
2023-02-27T04:50:41.675Z,0.00
2023-02-27T04:51:41.683Z,0.00
2023-02-27T04:52:41.672Z,0.00
2023-02-27T04:53:41.650Z,0.00
2023-02-27T04:54:41.648Z,0.00
2023-02-27T04:55:41.644Z,0.00
2023-02-27T04:56:41.634Z,0.00
2023-02-27T04:57:41.619Z,0.00
2023-02-27T04:58:41.609Z,0.00
2023-02-27T04:59:41.614Z,0.00
2023-02-27T05:00:41.575Z,0.00
2023-02-27T05:01:41.615Z,0.00
2023-02-27T05:02:41.743Z,0.00
2023-02-27T05:03:41.584Z,0.00
2023-02-27T05:04:41.551Z,0.00
2023-02-27T05:05:41.526Z,0.00
2023-02-27T05:06:41.520Z,0.00
2023-02-27T05:07:41.515Z,0.00
2023-02-27T05:08:41.502Z,0.00
2023-02-27T05:09:41.494Z,0.00
2023-02-27T05:10:41.493Z,0.00
2023-02-27T05:11:41.467Z,0.00
2023-02-27T05:12:41.478Z,0.00
2023-02-27T05:13:41.449Z,0.00
2023-02-27T05:14:41.452Z,0.00
2023-02-27T05:15:41.482Z,0.00
2023-02-27T05:16:41.462Z,0.00
2023-02-27T05:17:41.417Z,0.00
2023-02-27T05:18:41.398Z,0.00
2023-02-27T05:19:41.381Z,0.00
2023-02-27T05:20:41.389Z,0.00
2023-02-27T05:21:41.371Z,0.00
2023-02-27T05:22:41.347Z,0.00
2023-02-27T05:23:41.343Z,0.00
2023-02-27T05:24:41.326Z,0.00
2023-02-27T05:25:41.332Z,0.00
2023-02-27T05:26:41.331Z,0.00
2023-02-27T05:27:41.294Z,4.00
2023-02-27T05:28:42.326Z,4.00
2023-02-27T05:29:41.276Z,0.00
2023-02-27T05:30:41.299Z,4.00
2023-02-27T05:31:41.279Z,4.00
2023-02-27T05:32:41.317Z,4.00
2023-02-27T05:33:41.244Z,4.00
2023-02-27T05:34:41.232Z,4.00
2023-02-27T05:35:41.232Z,8.00
2023-02-27T05:36:41.227Z,8.00
2023-02-27T05:37:41.208Z,8.00
2023-02-27T05:38:41.188Z,12.00
2023-02-27T05:39:41.172Z,12.00
2023-02-27T05:40:41.170Z,16.00
2023-02-27T05:41:41.165Z,20.00
2023-02-27T05:42:41.142Z,20.00
2023-02-27T05:43:41.152Z,28.00
2023-02-27T05:44:41.159Z,28.00
2023-02-27T05:45:41.207Z,36.00
2023-02-27T05:46:41.118Z,40.00
2023-02-27T05:47:41.096Z,44.00
2023-02-27T05:48:41.100Z,56.00
2023-02-27T05:49:41.073Z,64.00
2023-02-27T05:50:41.061Z,72.00
2023-02-27T05:51:41.052Z,84.00
2023-02-27T05:52:41.048Z,92.00
2023-02-27T05:53:41.048Z,104.00
2023-02-27T05:54:41.017Z,120.00
2023-02-27T05:55:41.009Z,132.00
2023-02-27T05:56:40.995Z,148.00
2023-02-27T05:57:41.003Z,164.00
2023-02-27T05:58:41.004Z,180.00
2023-02-27T05:59:40.985Z,200.00
2023-02-27T06:00:40.997Z,216.00
2023-02-27T06:01:40.960Z,240.00
2023-02-27T06:02:40.939Z,260.00
2023-02-27T06:03:41.072Z,280.00
2023-02-27T06:04:40.938Z,308.00
2023-02-27T06:05:40.936Z,328.00
2023-02-27T06:06:40.907Z,352.00
2023-02-27T06:07:40.888Z,376.00
2023-02-27T06:08:40.885Z,408.00
2023-02-27T06:09:40.889Z,432.00
2023-02-27T06:10:40.865Z,460.00
2023-02-27T06:11:40.860Z,488.00
2023-02-27T06:12:40.843Z,516.00
2023-02-27T06:13:42.104Z,540.00
2023-02-27T06:14:40.854Z,568.00
2023-02-27T06:15:40.813Z,600.00
2023-02-27T06:16:40.838Z,624.00
2023-02-27T06:17:40.794Z,656.00
2023-02-27T06:18:40.797Z,684.00
2023-02-27T06:19:40.772Z,712.00
2023-02-27T06:20:40.803Z,744.00
2023-02-27T06:21:40.752Z,772.00
2023-02-27T06:22:40.745Z,800.00
2023-02-27T06:23:40.737Z,832.00
2023-02-27T06:24:40.729Z,864.00
2023-02-27T06:25:40.714Z,892.00
2023-02-27T06:26:40.717Z,920.00
2023-02-27T06:27:40.700Z,952.00
2023-02-27T06:28:40.675Z,980.00
2023-02-27T06:29:40.662Z,1008.00
2023-02-27T06:30:40.699Z,1040.00
2023-02-27T06:31:40.659Z,1068.00
2023-02-27T06:32:40.654Z,1096.00
2023-02-27T06:33:40.630Z,1124.00
2023-02-27T06:34:40.616Z,1148.00
2023-02-27T06:35:40.674Z,1176.00
2023-02-27T06:36:40.634Z,1208.00
2023-02-27T06:37:40.584Z,1244.00
2023-02-27T06:38:40.571Z,1284.00
2023-02-27T06:39:40.570Z,1320.00
2023-02-27T06:40:40.556Z,1360.00
2023-02-27T06:41:40.542Z,1392.00
2023-02-27T06:42:40.551Z,1424.00
2023-02-27T06:43:40.532Z,1448.00
2023-02-27T06:44:40.517Z,1464.00
2023-02-27T06:45:40.513Z,1484.00
2023-02-27T06:46:40.581Z,1500.00
2023-02-27T06:47:40.495Z,1516.00
2023-02-27T06:48:40.502Z,1540.00
2023-02-27T06:49:40.465Z,1560.00
2023-02-27T06:50:40.446Z,1580.00
2023-02-27T06:51:40.442Z,1604.00
2023-02-27T06:52:40.432Z,1628.00
2023-02-27T06:53:40.422Z,1648.00
2023-02-27T06:54:40.415Z,1668.00
2023-02-27T06:55:40.404Z,1688.00
2023-02-27T06:56:40.398Z,1708.00
2023-02-27T06:57:40.387Z,1728.00
2023-02-27T06:58:40.382Z,1748.00
2023-02-27T06:59:40.379Z,1768.00
2023-02-27T07:00:40.357Z,1784.00
2023-02-27T07:01:40.397Z,1800.00
2023-02-27T07:02:40.327Z,1820.00
2023-02-27T07:03:40.309Z,1840.00
2023-02-27T07:04:40.442Z,1856.00
2023-02-27T07:05:40.310Z,1868.00
2023-02-27T07:07:34.631Z,1888.00
2023-02-27T07:07:41.273Z,1904.00
2023-02-27T07:08:54.240Z,1916.00
2023-02-27T07:09:41.256Z,1932.00
2023-02-27T07:10:40.266Z,1948.00
2023-02-27T07:11:40.237Z,1960.00
2023-02-27T07:12:40.228Z,1972.00
2023-02-27T07:13:40.215Z,1992.00
2023-02-27T07:14:40.203Z,2004.00
2023-02-27T07:15:40.208Z,2016.00
2023-02-27T07:16:40.177Z,2032.00
2023-02-27T07:17:40.180Z,2044.00
2023-02-27T07:18:40.173Z,2060.00
2023-02-27T07:19:40.158Z,2068.00
2023-02-27T07:20:40.188Z,2084.00
2023-02-27T07:21:40.125Z,2100.00
2023-02-27T07:22:40.114Z,2112.00
2023-02-27T07:23:40.121Z,2128.00
2023-02-27T07:24:40.111Z,2136.00
2023-02-27T07:25:40.089Z,2148.00
2023-02-27T07:26:40.100Z,2148.00
2023-02-27T07:27:40.077Z,2092.00
2023-02-27T07:28:40.144Z,2048.00
2023-02-27T07:29:40.052Z,2028.00
2023-02-27T07:30:40.033Z,2016.00
2023-02-27T07:31:40.024Z,2012.00
2023-02-27T07:32:40.014Z,2024.00
2023-02-27T07:33:40.010Z,2060.00
2023-02-27T07:34:40.007Z,2152.00
2023-02-27T07:35:40.015Z,2308.00
2023-02-27T07:36:40.001Z,2560.00
2023-02-27T07:37:39.972Z,2896.00
2023-02-27T07:38:39.961Z,3260.00
2023-02-27T07:39:39.953Z,3520.00
2023-02-27T07:40:39.976Z,3704.00
2023-02-27T07:41:39.947Z,3736.00
2023-02-27T07:42:39.919Z,3636.00
2023-02-27T07:43:39.923Z,3548.00
2023-02-27T07:44:39.925Z,3436.00
2023-02-27T07:45:39.906Z,3388.00
2023-02-27T07:46:39.932Z,3372.00
2023-02-27T07:47:39.880Z,3380.00
2023-02-27T07:48:39.868Z,3444.00
2023-02-27T07:49:39.847Z,3532.00
2023-02-27T07:50:39.852Z,3624.00
2023-02-27T07:51:39.831Z,3712.00
2023-02-27T07:52:39.837Z,3788.00
2023-02-27T07:53:39.858Z,3860.00
2023-02-27T07:54:39.796Z,4016.00
2023-02-27T07:55:39.816Z,4200.00
2023-02-27T07:56:39.790Z,4256.00
2023-02-27T07:57:39.783Z,4456.00
2023-02-27T07:58:39.753Z,4532.00
2023-02-27T07:59:39.756Z,4560.00
2023-02-27T08:00:39.752Z,4212.00
2023-02-27T08:01:39.739Z,4132.00
2023-02-27T08:02:39.784Z,3892.00
2023-02-27T08:03:39.728Z,3736.00
2023-02-27T08:04:39.774Z,3560.00
2023-02-27T08:05:39.685Z,3468.00
2023-02-27T08:06:39.691Z,3252.00
2023-02-27T08:07:39.677Z,3144.00
2023-02-27T08:08:39.674Z,3100.00
2023-02-27T08:09:39.668Z,3128.00
2023-02-27T08:10:39.643Z,3224.00
2023-02-27T08:11:39.629Z,3452.00
2023-02-27T08:12:39.626Z,3620.00
2023-02-27T08:13:59.702Z,3756.00
2023-02-27T08:14:40.592Z,4180.00
2023-02-27T08:15:39.585Z,3868.00
2023-02-27T08:16:39.722Z,3716.00
2023-02-27T08:17:39.559Z,3540.00
2023-02-27T08:18:39.547Z,3668.00
2023-02-27T08:19:39.544Z,4040.00
2023-02-27T08:20:39.536Z,3760.00
2023-02-27T08:21:39.522Z,3652.00
2023-02-27T08:22:39.529Z,3748.00
2023-02-27T08:23:41.225Z,3908.00
2023-02-27T08:24:39.508Z,4204.00
2023-02-27T08:25:39.506Z,4744.00
2023-02-27T08:26:39.471Z,5048.00
2023-02-27T08:27:39.466Z,4992.00
2023-02-27T08:28:39.446Z,4816.00
2023-02-27T08:29:39.443Z,4780.00
2023-02-27T08:30:39.434Z,4984.00
2023-02-27T08:31:39.520Z,5000.00
2023-02-27T08:32:39.438Z,4852.00
2023-02-27T08:33:39.410Z,4776.00
2023-02-27T08:34:39.386Z,4764.00
2023-02-27T08:35:39.396Z,4976.00
2023-02-27T08:36:39.353Z,5260.00
2023-02-27T08:37:39.362Z,5216.00
2023-02-27T08:38:39.359Z,5220.00
2023-02-27T08:39:39.341Z,5284.00
2023-02-27T08:40:39.341Z,5324.00
2023-02-27T08:41:39.334Z,5420.00
2023-02-27T08:42:39.308Z,5424.00
2023-02-27T08:43:39.305Z,5328.00
2023-02-27T08:44:39.272Z,5248.00
2023-02-27T08:45:39.303Z,5052.00
2023-02-27T08:46:39.254Z,4900.00
2023-02-27T08:47:39.247Z,4976.00
2023-02-27T08:48:39.238Z,5640.00
2023-02-27T08:49:39.243Z,6100.00
2023-02-27T08:50:39.211Z,5980.00
2023-02-27T08:51:39.209Z,5692.00
2023-02-27T08:52:39.217Z,5224.00
2023-02-27T08:53:39.182Z,5096.00
2023-02-27T08:54:39.176Z,5016.00
2023-02-27T08:55:39.154Z,4612.00
2023-02-27T08:56:39.178Z,4044.00
2023-02-27T08:57:39.143Z,3392.00
2023-02-27T08:58:39.129Z,3052.00
2023-02-27T08:59:39.133Z,3284.00
2023-02-27T09:00:39.136Z,3684.00
2023-02-27T09:01:39.106Z,4276.00
2023-02-27T09:02:39.161Z,4924.00
2023-02-27T09:03:39.087Z,5880.00
2023-02-27T09:04:39.102Z,6612.00
2023-02-27T09:05:39.060Z,6860.00
2023-02-27T09:06:39.047Z,7096.00
2023-02-27T09:07:39.044Z,7320.00
2023-02-27T09:08:39.050Z,7556.00
2023-02-27T09:09:39.020Z,7684.00
2023-02-27T09:10:39.027Z,7828.00
2023-02-27T09:11:39.009Z,7928.00
2023-02-27T09:12:39.031Z,8016.00
2023-02-27T09:13:38.986Z,8040.00
2023-02-27T09:14:38.975Z,8000.00
2023-02-27T09:15:38.955Z,7852.00
2023-02-27T09:16:39.061Z,7680.00
2023-02-27T09:17:38.937Z,7584.00
2023-02-27T09:18:38.929Z,7512.00
2023-02-27T09:19:38.915Z,7412.00
2023-02-27T09:20:38.893Z,7544.00
2023-02-27T09:21:38.893Z,7712.00
2023-02-27T09:22:38.888Z,7912.00
2023-02-27T09:23:38.874Z,7956.00
2023-02-27T09:24:38.858Z,8096.00
2023-02-27T09:25:38.848Z,8092.00
2023-02-27T09:26:45.210Z,8068.00
2023-02-27T09:27:39.855Z,8140.00
2023-02-27T09:28:38.846Z,8152.00
2023-02-27T09:29:38.807Z,8136.00
2023-02-27T09:30:38.797Z,8076.00
2023-02-27T09:31:47.820Z,7976.00
2023-02-27T09:32:47.656Z,7832.00
2023-02-27T09:33:46.300Z,7632.00
2023-02-27T09:34:38.752Z,7468.00
2023-02-27T09:35:38.810Z,7360.00
2023-02-27T09:36:38.726Z,7232.00
2023-02-27T09:37:38.727Z,6988.00
2023-02-27T09:38:41.002Z,6740.00
2023-02-27T09:39:38.696Z,6628.00
2023-02-27T09:40:38.706Z,6604.00
2023-02-27T09:41:38.679Z,6920.00
2023-02-27T09:42:38.678Z,7184.00
2023-02-27T09:43:38.665Z,7444.00
2023-02-27T09:44:46.053Z,7840.00
2023-02-27T09:45:39.728Z,8352.00
2023-02-27T09:46:38.628Z,8620.00
2023-02-27T09:47:38.637Z,8736.00
2023-02-27T09:48:38.604Z,8680.00
2023-02-27T09:49:38.602Z,8596.00
2023-02-27T09:50:38.586Z,8584.00
2023-02-27T09:51:38.571Z,8672.00
2023-02-27T09:52:38.565Z,8700.00
2023-02-27T09:53:38.561Z,8744.00
2023-02-27T09:54:38.541Z,8648.00
2023-02-27T09:55:38.524Z,8548.00
2023-02-27T09:56:38.539Z,8416.00
2023-02-27T09:57:38.519Z,8320.00
2023-02-27T09:58:38.492Z,8292.00
2023-02-27T09:59:38.491Z,8188.00
2023-02-27T10:00:38.506Z,8068.00
2023-02-27T10:01:38.480Z,7988.00
2023-02-27T10:02:38.471Z,7984.00
2023-02-27T10:03:38.502Z,7928.00
2023-02-27T10:04:38.443Z,7972.00
2023-02-27T10:05:38.425Z,7916.00
2023-02-27T10:06:38.407Z,7880.00
2023-02-27T10:07:38.404Z,7864.00
2023-02-27T10:08:38.389Z,8180.00
2023-02-27T10:09:38.384Z,8440.00
2023-02-27T10:10:38.373Z,8580.00
2023-02-27T10:11:38.354Z,8672.00
2023-02-27T10:12:38.357Z,8624.00
2023-02-27T10:13:38.346Z,8580.00
2023-02-27T10:14:38.342Z,8392.00
2023-02-27T10:15:38.314Z,8240.00
2023-02-27T10:16:38.381Z,8184.00
2023-02-27T10:17:38.293Z,8192.00
2023-02-27T10:18:38.294Z,8192.00
2023-02-27T10:19:38.306Z,8332.00
2023-02-27T10:20:38.273Z,8512.00
2023-02-27T10:21:38.262Z,8620.00
2023-02-27T10:22:38.261Z,8696.00
2023-02-27T10:23:38.234Z,8660.00
2023-02-27T10:24:38.224Z,8468.00
2023-02-27T10:25:38.223Z,8340.00
2023-02-27T10:26:38.222Z,8344.00
2023-02-27T10:27:38.197Z,8292.00
2023-02-27T10:28:38.183Z,8536.00
2023-02-27T10:29:38.175Z,8804.00
2023-02-27T10:30:38.210Z,8732.00
2023-02-27T10:31:38.168Z,8756.00
2023-02-27T10:32:38.173Z,8680.00
2023-02-27T10:33:38.139Z,8792.00
2023-02-27T10:34:38.124Z,8800.00
2023-02-27T10:35:38.171Z,8856.00
2023-02-27T10:36:38.132Z,8992.00
2023-02-27T10:37:38.101Z,8844.00
2023-02-27T10:38:38.094Z,8552.00
2023-02-27T10:39:38.087Z,8372.00
2023-02-27T10:40:38.076Z,8056.00
2023-02-27T10:41:38.116Z,7804.00
2023-02-27T10:42:39.605Z,7756.00
2023-02-27T10:43:38.029Z,7744.00
2023-02-27T10:44:38.036Z,7696.00
2023-02-27T10:45:39.027Z,7844.00
2023-02-27T10:46:38.384Z,7932.00
2023-02-27T10:47:37.991Z,7940.00
2023-02-27T10:48:38.023Z,7848.00
2023-02-27T10:49:37.971Z,7768.00
2023-02-27T10:50:37.968Z,7796.00
2023-02-27T10:51:38.315Z,7884.00
2023-02-27T10:52:37.925Z,7980.00
2023-02-27T10:53:37.918Z,8056.00
2023-02-27T10:54:37.925Z,8024.00
2023-02-27T10:55:37.890Z,7892.00
2023-02-27T10:56:37.884Z,7688.00
2023-02-27T10:57:37.873Z,7404.00
2023-02-27T10:58:37.875Z,7288.00
2023-02-27T10:59:37.862Z,7220.00
2023-02-27T11:00:37.853Z,7176.00
2023-02-27T11:01:37.856Z,7120.00
2023-02-27T11:02:37.859Z,7040.00
2023-02-27T11:03:40.640Z,7052.00
2023-02-27T11:04:38.037Z,7316.00
2023-02-27T11:05:37.792Z,7536.00
2023-02-27T11:06:37.771Z,8000.00
2023-02-27T11:07:37.777Z,8276.00
2023-02-27T11:08:37.758Z,8424.00
2023-02-27T11:09:37.740Z,8640.00
2023-02-27T11:10:37.744Z,8744.00
2023-02-27T11:11:37.747Z,8832.00
2023-02-27T11:12:37.715Z,8784.00
2023-02-27T11:13:37.714Z,8824.00
2023-02-27T11:14:37.685Z,8652.00
2023-02-27T11:15:37.707Z,8412.00
2023-02-27T11:16:37.682Z,8068.00
2023-02-27T11:17:37.683Z,7640.00
2023-02-27T11:18:37.644Z,7492.00
2023-02-27T11:19:37.656Z,7328.00
2023-02-27T11:20:37.657Z,6980.00
2023-02-27T11:21:37.637Z,6660.00
2023-02-27T11:22:37.612Z,6364.00
2023-02-27T11:23:37.602Z,6224.00
2023-02-27T11:24:37.587Z,5948.00
2023-02-27T11:25:37.582Z,5536.00
2023-02-27T11:26:37.582Z,5256.00
2023-02-27T11:27:37.561Z,5108.00
2023-02-27T11:28:37.555Z,5004.00
2023-02-27T11:29:37.551Z,5056.00
2023-02-27T11:30:37.540Z,4984.00
2023-02-27T11:31:37.555Z,4904.00
2023-02-27T11:32:37.505Z,4512.00
2023-02-27T11:33:37.501Z,4176.00
2023-02-27T11:34:37.501Z,3744.00
2023-02-27T11:35:37.530Z,3544.00
2023-02-27T11:36:37.481Z,3524.00
2023-02-27T11:37:37.462Z,3332.00
2023-02-27T11:38:37.456Z,3296.00
2023-02-27T11:39:37.438Z,3400.00
2023-02-27T11:40:44.964Z,3296.00
2023-02-27T11:41:45.020Z,3320.00
2023-02-27T11:42:44.936Z,3216.00
2023-02-27T11:43:46.297Z,3136.00
2023-02-27T11:44:50.571Z,3100.00
2023-02-27T11:46:05.274Z,3072.00
2023-02-27T11:46:47.619Z,3052.00
2023-02-27T11:47:38.400Z,3044.00
2023-02-27T11:48:37.333Z,3040.00
2023-02-27T11:49:37.324Z,3036.00
2023-02-27T11:50:37.348Z,3028.00
2023-02-27T11:51:37.313Z,3020.00
2023-02-27T11:52:37.321Z,3020.00
2023-02-27T11:53:37.295Z,3028.00
2023-02-27T11:54:37.285Z,3036.00
2023-02-27T11:55:37.287Z,3052.00
2023-02-27T11:56:37.299Z,3116.00
2023-02-27T11:57:37.261Z,3224.00
2023-02-27T11:58:37.233Z,3424.00
2023-02-27T11:59:37.228Z,3736.00
2023-02-27T12:00:37.224Z,3972.00
2023-02-27T12:01:37.203Z,3808.00
2023-02-27T12:02:39.289Z,3368.00
2023-02-27T12:03:37.244Z,3236.00
2023-02-27T12:04:37.179Z,3040.00
2023-02-27T12:05:37.172Z,3296.00
2023-02-27T12:06:37.152Z,3600.00
2023-02-27T12:07:37.150Z,3504.00
2023-02-27T12:08:37.170Z,3376.00
2023-02-27T12:09:37.118Z,3164.00
2023-02-27T12:10:37.114Z,3264.00
2023-02-27T12:11:37.103Z,3620.00
2023-02-27T12:12:37.100Z,3772.00
2023-02-27T12:13:37.084Z,4076.00
2023-02-27T12:14:37.103Z,3792.00
2023-02-27T12:15:37.074Z,3424.00
2023-02-27T12:16:37.102Z,2888.00
2023-02-27T12:17:37.045Z,2804.00
2023-02-27T12:18:37.039Z,2908.00
2023-02-27T12:19:37.026Z,3064.00
2023-02-27T12:20:37.018Z,3320.00
2023-02-27T12:21:37.004Z,3656.00
2023-02-27T12:22:37.004Z,4140.00
2023-02-27T12:23:37.025Z,4820.00
2023-02-27T12:24:36.990Z,5412.00
2023-02-27T12:25:36.958Z,5936.00
2023-02-27T12:26:36.954Z,6252.00
2023-02-27T12:27:36.927Z,6772.00
2023-02-27T12:28:36.919Z,7160.00
2023-02-27T12:29:36.940Z,6888.00
2023-02-27T12:30:36.902Z,5948.00
2023-02-27T12:31:36.946Z,5380.00
2023-02-27T12:32:36.926Z,5464.00
2023-02-27T12:33:36.869Z,6212.00
2023-02-27T12:34:36.879Z,6960.00
2023-02-27T12:35:36.863Z,7600.00
2023-02-27T12:36:36.848Z,7692.00
2023-02-27T12:37:36.825Z,7848.00
2023-02-27T12:38:36.820Z,7604.00